createdAt,value
2022-09-15T07:27:46.052Z,11.45
2022-09-15T07:48:49.068Z,17.96
2022-09-15T07:49:52.997Z,18.26
2022-09-15T07:50:50.015Z,18.29
2022-09-15T08:02:44.034Z,19.38
2022-09-15T11:29:28.684Z,18.63
2022-09-15T11:29:40.646Z,18.79
2022-09-15T11:29:51.663Z,18.87
2022-09-15T11:30:02.594Z,18.94
2022-09-15T11:30:13.607Z,18.99
2022-09-15T11:30:24.633Z,19.06
2022-09-15T11:30:35.664Z,19.13
2022-09-15T11:30:47.922Z,19.19
2022-09-15T11:30:57.652Z,19.25
2022-09-15T11:31:08.700Z,19.33
2022-09-15T11:31:20.680Z,19.40
2022-09-15T11:31:31.715Z,19.46
2022-09-15T11:31:42.727Z,19.53
2022-09-15T11:32:00.664Z,19.58
2022-09-15T11:32:05.646Z,19.66
2022-09-15T11:32:16.663Z,19.72
2022-09-15T11:32:27.690Z,19.76
2022-09-15T11:32:39.634Z,19.84
2022-09-15T11:32:52.964Z,19.89
2022-09-15T11:33:02.685Z,19.95
2022-09-15T11:33:12.699Z,20.00
2022-09-15T11:33:24.637Z,20.06
2022-09-15T11:33:35.673Z,20.11
2022-09-15T11:33:46.597Z,20.18
2022-09-15T11:33:57.625Z,20.23
2022-09-15T11:34:08.647Z,20.28
2022-09-15T11:34:19.679Z,20.31
2022-09-15T11:34:31.680Z,20.37
2022-09-15T11:34:43.629Z,20.41
2022-09-15T11:34:55.607Z,20.47
2022-09-15T11:35:06.657Z,20.53
2022-09-15T11:35:17.598Z,20.57
2022-09-15T11:35:28.640Z,20.61
2022-09-15T11:35:39.671Z,20.65
2022-09-15T11:35:50.688Z,20.70
2022-09-15T11:36:02.673Z,20.74
2022-09-15T11:36:14.640Z,20.78
2022-09-15T11:36:26.602Z,20.83
2022-09-15T11:36:37.637Z,20.85
2022-09-15T11:36:48.641Z,20.91
2022-09-15T11:36:59.655Z,20.95
2022-09-15T11:37:10.681Z,20.97
2022-09-15T11:37:22.621Z,21.01
2022-09-15T11:37:33.661Z,21.04
2022-09-15T11:37:44.689Z,21.07
2022-09-15T11:37:56.663Z,21.12
2022-09-15T11:38:12.387Z,21.14
2022-09-15T11:38:20.653Z,21.18
2022-09-15T11:38:31.642Z,21.21
2022-09-15T11:38:42.601Z,21.23
2022-09-15T11:38:53.683Z,21.27
2022-09-15T11:39:05.678Z,21.31
2022-09-15T11:39:16.612Z,21.33
2022-09-15T11:39:27.720Z,21.35
2022-09-15T11:39:38.762Z,21.37
2022-09-15T11:39:49.769Z,21.40
2022-09-15T11:40:01.777Z,21.43
2022-09-15T11:40:13.814Z,21.45
2022-09-15T11:40:24.746Z,21.47
2022-09-15T11:40:35.894Z,21.49
2022-09-15T11:40:47.773Z,21.51
2022-09-15T11:40:59.747Z,21.53
2022-09-15T11:41:10.737Z,21.56
2022-09-15T11:41:21.741Z,21.59
2022-09-15T11:41:32.730Z,21.59
2022-09-15T11:41:43.708Z,21.60
2022-09-15T11:41:54.722Z,21.62
2022-09-15T11:42:05.709Z,21.64
2022-09-15T11:42:16.705Z,21.66
2022-09-15T11:42:27.783Z,21.69
2022-09-15T11:42:39.726Z,21.70
2022-09-15T11:42:50.800Z,21.72
2022-09-15T11:43:02.731Z,21.74
2022-09-15T11:43:13.705Z,21.76
2022-09-15T11:43:24.674Z,21.78
2022-09-15T11:43:36.627Z,21.80
2022-09-15T11:43:47.642Z,21.82
2022-09-15T11:43:59.615Z,21.83
2022-09-15T11:44:14.704Z,21.84
2022-09-15T11:44:22.677Z,21.88
2022-09-15T11:44:33.655Z,21.87
2022-09-15T11:44:44.683Z,21.91
2022-09-15T11:44:56.660Z,21.93
2022-09-15T11:45:07.601Z,21.94
2022-09-15T11:45:18.626Z,21.96
2022-09-15T11:45:29.655Z,21.97
2022-09-15T11:45:40.668Z,21.99
2022-09-15T11:45:52.620Z,22.01
2022-09-15T11:46:03.648Z,22.01
2022-09-15T11:46:15.680Z,22.04
2022-09-15T11:46:26.745Z,22.06
2022-09-15T11:46:38.670Z,22.06
2022-09-15T11:46:49.712Z,22.08
2022-09-15T11:47:01.655Z,22.10
2022-09-15T11:47:12.698Z,22.12
2022-09-15T11:47:24.649Z,22.13
2022-09-15T11:47:35.675Z,22.14
2022-09-15T11:47:47.609Z,22.17
2022-09-15T11:47:58.668Z,22.18
2022-09-15T11:48:10.616Z,22.21
2022-09-15T11:48:21.663Z,22.22
2022-09-15T11:48:32.682Z,22.23
2022-09-15T11:48:44.636Z,22.23
2022-09-15T11:48:55.670Z,22.26
2022-09-15T11:49:07.653Z,22.27
2022-09-15T11:49:18.595Z,22.28
2022-09-15T11:49:29.633Z,22.28
2022-09-15T11:49:40.682Z,22.32
2022-09-15T11:49:52.630Z,22.33
2022-09-15T11:50:03.676Z,22.34
2022-09-15T11:50:15.637Z,22.35
2022-09-15T11:50:26.661Z,22.36
2022-09-15T11:50:38.625Z,22.37
2022-09-15T11:50:49.679Z,22.37
2022-09-15T11:51:01.645Z,22.39
2022-09-15T11:51:12.678Z,22.40
2022-09-15T11:51:24.637Z,22.41
2022-09-15T11:51:35.662Z,22.42
2022-09-15T11:51:46.679Z,22.44
2022-09-15T11:51:58.651Z,22.44
2022-09-15T11:52:09.702Z,22.46
2022-09-15T11:52:21.636Z,22.47
2022-09-15T11:52:33.627Z,22.47
2022-09-15T11:52:44.690Z,22.49
2022-09-15T11:52:56.644Z,22.49
2022-09-15T11:53:07.689Z,22.51
2022-09-15T11:53:19.643Z,22.53
2022-09-15T11:53:30.673Z,22.53
2022-09-15T11:53:42.645Z,22.52
2022-09-15T11:53:53.718Z,22.54
2022-09-15T11:54:04.693Z,22.55
2022-09-15T11:54:16.641Z,22.56
2022-09-15T11:54:31.057Z,22.56
2022-09-15T11:54:39.635Z,22.55
2022-09-15T11:54:50.659Z,22.57
2022-09-15T11:55:02.663Z,22.58
2022-09-15T11:55:14.614Z,22.58
2022-09-15T11:55:25.684Z,22.60
2022-09-15T11:55:37.610Z,22.61
2022-09-15T11:55:48.641Z,22.62
2022-09-15T11:55:59.655Z,22.62
2022-09-15T11:56:10.680Z,22.62
2022-09-15T11:56:21.598Z,22.63
2022-09-15T11:56:32.624Z,22.64
2022-09-15T11:56:43.656Z,22.64
2022-09-15T11:56:54.589Z,22.65
2022-09-15T11:57:05.661Z,22.66
2022-09-15T11:57:16.686Z,22.66
2022-09-15T11:57:27.606Z,22.67
2022-09-15T11:57:38.639Z,22.68
2022-09-15T11:57:49.664Z,22.68
2022-09-15T11:58:01.641Z,22.69
2022-09-15T11:58:12.677Z,22.70
2022-09-15T11:58:23.614Z,22.69
2022-09-15T11:58:34.641Z,22.70
2022-09-15T11:58:45.668Z,22.71
2022-09-15T11:58:57.619Z,22.70
2022-09-15T11:59:08.605Z,22.69
2022-09-15T11:59:19.677Z,22.70
2022-09-15T11:59:31.625Z,22.70
2022-09-15T11:59:42.662Z,22.69
2022-09-15T11:59:53.596Z,22.69
2022-09-15T12:00:04.629Z,22.70
2022-09-15T12:00:15.673Z,22.70
2022-09-15T12:00:27.635Z,22.70
2022-09-15T12:00:38.687Z,22.70
2022-09-15T12:00:50.620Z,22.70
2022-09-15T12:01:01.648Z,22.71
2022-09-15T12:01:12.616Z,22.71
2022-09-15T12:01:23.667Z,22.72
2022-09-15T12:01:35.699Z,22.72
2022-09-15T12:01:47.691Z,22.71
2022-09-15T12:01:58.707Z,22.73
2022-09-15T12:02:10.717Z,22.72
2022-09-15T12:02:21.703Z,22.72
2022-09-15T12:02:33.702Z,22.73
2022-09-15T12:02:45.724Z,22.72
2022-09-15T12:02:57.723Z,22.72
2022-09-15T12:03:08.793Z,22.73
2022-09-15T12:03:19.728Z,22.72
2022-09-15T12:03:31.697Z,22.74
2022-09-15T12:03:43.667Z,22.73
2022-09-15T12:03:54.593Z,22.73
2022-09-15T12:04:05.604Z,22.74
2022-09-15T12:04:16.637Z,22.73
2022-09-15T12:04:27.681Z,22.75
2022-09-15T12:04:39.645Z,22.75
2022-09-15T12:04:50.661Z,22.75
2022-09-15T12:05:02.640Z,22.76
2022-09-15T12:05:13.689Z,22.76
2022-09-15T12:05:25.621Z,22.77
2022-09-15T12:05:36.643Z,22.78
2022-09-15T12:05:47.603Z,22.78
2022-09-15T12:05:58.633Z,22.77
2022-09-15T12:06:09.656Z,22.79
2022-09-15T12:06:20.687Z,22.79
2022-09-15T12:06:32.650Z,22.80
2022-09-15T12:06:45.967Z,22.80
2022-09-15T12:06:55.651Z,22.81
2022-09-15T12:07:09.778Z,22.82
2022-09-15T12:07:18.630Z,22.82
2022-09-15T12:07:28.598Z,22.82
2022-09-15T12:07:39.630Z,22.83
2022-09-15T12:07:50.659Z,22.83
2022-09-15T12:08:01.686Z,22.83
2022-09-15T12:08:13.667Z,22.84
2022-09-15T12:08:25.621Z,22.84
2022-09-15T12:08:36.651Z,22.85
2022-09-15T12:08:48.630Z,22.86
2022-09-15T12:08:59.625Z,22.87
2022-09-15T12:09:10.665Z,22.86
2022-09-15T12:09:21.687Z,22.87
2022-09-15T12:09:33.625Z,22.88
2022-09-15T12:09:45.609Z,22.88
2022-09-15T12:09:56.663Z,22.90
2022-09-15T12:10:08.621Z,22.89
2022-09-15T12:10:19.674Z,22.90
2022-09-15T12:10:30.688Z,22.90
2022-09-15T12:10:42.682Z,22.92
2022-09-15T12:10:54.658Z,22.91
2022-09-15T12:11:05.592Z,22.91
2022-09-15T12:11:16.625Z,22.91
2022-09-15T12:11:27.697Z,22.93
2022-09-15T12:11:39.620Z,22.92
2022-09-15T12:11:50.700Z,22.93
2022-09-15T12:12:02.654Z,22.94
2022-09-15T12:12:13.598Z,22.95
2022-09-15T12:12:28.139Z,22.96
2022-09-15T12:12:36.675Z,22.96
2022-09-15T12:12:47.683Z,22.97
2022-09-15T12:12:59.627Z,22.97
2022-09-15T12:13:10.647Z,22.97
2022-09-15T12:13:21.705Z,22.96
2022-09-15T12:13:33.634Z,22.98
2022-09-15T12:13:44.652Z,23.00
2022-09-15T12:13:56.620Z,22.99
2022-09-15T12:14:07.660Z,23.01
2022-09-15T12:14:18.686Z,23.01
2022-09-15T12:14:30.626Z,23.01
2022-09-15T12:14:41.653Z,23.02
2022-09-15T12:14:52.702Z,23.03
2022-09-15T12:15:04.664Z,23.04
2022-09-15T12:15:16.625Z,23.04
2022-09-15T12:15:27.725Z,23.05
2022-09-15T12:15:39.659Z,23.05
2022-09-15T12:15:51.686Z,23.06
2022-09-15T12:16:02.704Z,23.06
2022-09-15T12:16:13.703Z,23.06
2022-09-15T12:16:25.740Z,23.07
2022-09-15T12:16:36.688Z,23.08
2022-09-15T12:16:48.661Z,23.08
2022-09-15T12:16:59.690Z,23.08
2022-09-15T12:17:11.650Z,23.09
2022-09-15T12:17:22.593Z,23.10
2022-09-15T12:17:33.637Z,23.11
2022-09-15T12:17:44.676Z,23.11
2022-09-15T12:17:56.633Z,23.12
2022-09-15T12:18:27.344Z,23.12
2022-09-15T12:18:37.777Z,23.11
2022-09-15T12:18:39.949Z,23.13
2022-09-15T12:18:46.040Z,23.15
2022-09-15T12:18:53.622Z,23.13
2022-09-15T12:19:04.653Z,23.15
2022-09-15T12:19:15.669Z,23.15
2022-09-15T12:19:26.594Z,23.14
2022-09-15T12:19:37.617Z,23.15
2022-09-15T12:19:48.638Z,23.14
2022-09-15T12:20:00.616Z,23.15
2022-09-15T12:20:11.656Z,23.17
2022-09-15T12:20:23.641Z,23.16
2022-09-15T12:20:34.692Z,23.16
2022-09-15T12:20:46.643Z,23.16
2022-09-15T12:20:58.620Z,23.17
2022-09-15T12:21:09.584Z,23.17
2022-09-15T12:21:20.621Z,23.17
2022-09-15T12:21:31.595Z,23.18
2022-09-15T12:21:42.646Z,23.19
2022-09-15T12:21:53.705Z,23.20
2022-09-15T12:22:04.770Z,23.19
2022-09-15T12:22:16.745Z,23.18
2022-09-15T12:22:27.703Z,23.18
2022-09-15T12:22:39.720Z,23.18
2022-09-15T12:22:50.724Z,23.20
2022-09-15T12:23:01.633Z,23.19
2022-09-15T12:23:12.587Z,23.19
2022-09-15T12:23:23.615Z,23.19
2022-09-15T12:23:34.625Z,23.19
2022-09-15T12:23:45.658Z,23.18
2022-09-15T12:23:56.615Z,23.19
2022-09-15T12:24:07.583Z,23.19
2022-09-15T12:24:18.662Z,23.19
2022-09-15T12:24:29.704Z,23.20
2022-09-15T12:24:41.613Z,23.20
2022-09-15T12:24:52.646Z,23.19
2022-09-15T12:25:04.617Z,23.20
2022-09-15T12:25:15.669Z,23.18
2022-09-15T12:25:27.636Z,23.19
2022-09-15T12:25:38.630Z,23.19
2022-09-15T12:25:49.599Z,23.19
2022-09-15T12:26:00.625Z,23.19
2022-09-15T12:26:11.654Z,23.18
2022-09-15T12:26:22.675Z,23.21
2022-09-15T12:26:34.607Z,23.18
2022-09-15T12:26:45.677Z,23.19
2022-09-15T12:26:56.610Z,23.19
2022-09-15T12:27:07.641Z,23.20
2022-09-15T12:27:18.657Z,23.19
2022-09-15T12:27:30.616Z,23.18
2022-09-15T12:27:41.640Z,23.19
2022-09-15T12:27:52.580Z,23.18
2022-09-15T12:28:03.656Z,23.19
2022-09-15T12:28:14.672Z,23.19
2022-09-15T12:28:26.705Z,23.18
2022-09-15T12:28:39.106Z,23.18
2022-09-15T12:28:49.668Z,23.19
2022-09-15T12:29:01.588Z,23.18
2022-09-15T12:29:12.616Z,23.18
2022-09-15T12:29:23.642Z,23.19
2022-09-15T12:29:36.904Z,23.18
2022-09-15T12:29:45.778Z,23.19
2022-09-15T12:29:57.746Z,23.19
2022-09-15T12:30:09.662Z,23.19
2022-09-15T12:30:20.684Z,23.19
2022-09-15T12:30:32.651Z,23.20
2022-09-15T12:30:43.690Z,23.21
2022-09-15T12:30:55.687Z,23.20
2022-09-15T12:31:07.720Z,23.20
2022-09-15T12:31:18.626Z,23.20
2022-09-15T12:31:29.787Z,23.21
2022-09-15T12:31:40.715Z,23.21
2022-09-15T12:31:52.692Z,23.21
2022-09-15T12:32:04.630Z,23.20
2022-09-15T12:32:15.656Z,23.21
2022-09-15T12:32:27.655Z,23.22
2022-09-15T12:32:38.692Z,23.24
2022-09-15T12:32:50.629Z,23.22
2022-09-15T12:33:01.638Z,23.23
2022-09-15T12:33:12.668Z,23.22
2022-09-15T12:33:24.611Z,23.23
2022-09-15T12:33:35.628Z,23.24
2022-09-15T12:33:46.669Z,23.23
2022-09-15T12:33:58.589Z,23.22
2022-09-15T12:34:09.658Z,23.24
2022-09-15T12:34:21.631Z,23.25
2022-09-15T12:34:32.669Z,23.24
2022-09-15T12:34:43.583Z,23.24
2022-09-15T12:34:54.632Z,23.25
2022-09-15T12:35:07.963Z,23.24
2022-09-15T12:35:16.663Z,23.25
2022-09-15T12:35:27.665Z,23.25
2022-09-15T12:35:39.602Z,23.26
2022-09-15T12:35:50.632Z,23.26
2022-09-15T12:36:01.674Z,23.26
2022-09-15T12:36:13.657Z,23.28
2022-09-15T12:36:25.632Z,23.27
2022-09-15T12:36:36.655Z,23.26
2022-09-15T12:36:48.685Z,23.27
2022-09-15T12:37:10.652Z,23.28
2022-09-15T12:37:22.600Z,23.29
2022-09-15T12:37:33.655Z,23.28
2022-09-15T12:37:44.597Z,23.28
2022-09-15T12:37:55.612Z,23.30
2022-09-15T12:38:06.631Z,23.28
2022-09-15T12:38:18.605Z,23.30
2022-09-15T12:38:29.642Z,23.30
2022-09-15T12:38:40.683Z,23.30
2022-09-15T12:38:52.742Z,23.30
2022-09-15T12:39:04.643Z,23.30
2022-09-15T12:39:15.661Z,23.32
2022-09-15T12:39:27.625Z,23.32
2022-09-15T12:39:38.584Z,23.32
2022-09-15T12:39:49.661Z,23.33
2022-09-15T12:40:01.642Z,23.31
2022-09-15T12:40:12.697Z,23.32
2022-09-15T12:40:23.681Z,23.33
2022-09-15T12:40:35.708Z,23.31
2022-09-15T12:40:46.649Z,23.32
2022-09-15T12:40:58.611Z,23.33
2022-09-15T12:41:09.645Z,23.31
2022-09-15T12:41:21.599Z,23.30
2022-09-15T12:41:32.650Z,23.31
2022-09-15T12:41:43.668Z,23.32
2022-09-15T12:41:55.618Z,23.32
2022-09-15T12:42:07.607Z,23.32
2022-09-15T12:42:18.643Z,23.31
2022-09-15T12:42:30.620Z,23.32
2022-09-15T12:42:41.646Z,23.32
2022-09-15T12:42:52.584Z,23.32
2022-09-15T12:43:03.602Z,23.33
2022-09-15T12:43:14.654Z,23.33
2022-09-15T12:43:26.632Z,23.33
2022-09-15T12:43:37.589Z,23.33
2022-09-15T12:43:48.646Z,23.34
2022-09-15T12:43:59.659Z,23.33
2022-09-15T12:44:11.609Z,23.35
2022-09-15T12:44:22.635Z,23.35
2022-09-15T12:44:33.686Z,23.35
2022-09-15T12:44:45.669Z,23.35
2022-09-15T12:44:57.634Z,23.35
2022-09-15T12:45:09.632Z,23.35
2022-09-15T12:45:21.596Z,23.36
2022-09-15T12:45:32.664Z,23.35
2022-09-15T12:45:44.605Z,23.36
2022-09-15T12:45:55.795Z,23.37
2022-09-15T12:46:06.730Z,23.38
2022-09-15T12:46:18.760Z,23.36
2022-09-15T12:46:30.705Z,23.39
2022-09-15T12:46:41.771Z,23.38
2022-09-15T12:46:53.752Z,23.39
2022-09-15T12:47:05.656Z,23.39
2022-09-15T12:47:16.675Z,23.38
2022-09-15T12:47:28.601Z,23.39
2022-09-15T12:47:39.704Z,23.38
2022-09-15T12:47:51.629Z,23.38
2022-09-15T12:48:02.642Z,23.39
2022-09-15T12:48:14.621Z,23.39
2022-09-15T12:48:25.655Z,23.39
2022-09-15T12:48:36.678Z,23.39
2022-09-15T12:48:48.631Z,23.37
2022-09-15T12:48:59.581Z,23.37
2022-09-15T12:49:10.626Z,23.39
2022-09-15T12:49:21.661Z,23.39
2022-09-15T12:49:32.687Z,23.38
2022-09-15T12:49:44.662Z,23.39
2022-09-15T12:49:56.616Z,23.39
2022-09-15T12:50:07.660Z,23.38
2022-09-15T12:50:19.632Z,23.38
2022-09-15T12:50:30.652Z,23.38
2022-09-15T12:50:41.692Z,23.39
2022-09-15T12:50:53.618Z,23.38
2022-09-15T12:51:04.579Z,23.40
2022-09-15T12:51:15.616Z,23.39
2022-09-15T12:51:26.645Z,23.40
2022-09-15T12:51:37.581Z,23.40
2022-09-15T12:51:48.627Z,23.39
2022-09-15T12:51:59.667Z,23.40
2022-09-15T12:52:11.615Z,23.39
2022-09-15T12:52:22.623Z,23.40
2022-09-15T12:52:33.645Z,23.40
2022-09-15T12:52:44.669Z,23.41
2022-09-15T12:52:55.598Z,23.40
2022-09-15T12:53:06.619Z,23.40
2022-09-15T12:53:17.653Z,23.40
2022-09-15T12:53:29.636Z,23.41
2022-09-15T12:53:41.659Z,23.40
2022-09-15T12:53:52.771Z,23.40
2022-09-15T12:54:03.676Z,23.40
2022-09-15T12:54:15.621Z,23.40
2022-09-15T12:54:26.646Z,23.40
2022-09-15T12:54:37.577Z,23.40
2022-09-15T12:54:48.606Z,23.39
2022-09-15T12:54:59.634Z,23.40
2022-09-15T12:55:10.660Z,23.39
2022-09-15T12:55:21.576Z,23.39
2022-09-15T12:55:32.642Z,23.39
2022-09-15T12:55:43.662Z,23.40
2022-09-15T12:55:55.649Z,23.40
2022-09-15T12:56:06.579Z,23.40
2022-09-15T12:56:17.684Z,23.40
2022-09-15T12:56:29.625Z,23.41
2022-09-15T12:56:40.665Z,23.41
2022-09-15T12:56:52.601Z,23.42
2022-09-15T12:57:03.621Z,23.41
2022-09-15T12:57:14.670Z,23.41
2022-09-15T12:57:26.603Z,23.41
2022-09-15T12:57:37.579Z,23.39
2022-09-15T12:57:48.604Z,23.41
2022-09-15T12:57:59.619Z,23.39
2022-09-15T12:58:10.707Z,23.40
2022-09-15T12:58:22.628Z,23.41
2022-09-15T12:58:34.603Z,23.40
2022-09-15T12:58:45.625Z,23.41
2022-09-15T12:58:56.656Z,23.41
2022-09-15T12:59:07.606Z,23.41
2022-09-15T12:59:18.635Z,23.41
2022-09-15T12:59:29.658Z,23.40
2022-09-15T12:59:41.591Z,23.40
2022-09-15T12:59:52.633Z,23.40
2022-09-15T13:00:03.673Z,23.41
2022-09-15T13:00:14.655Z,23.41
2022-09-15T13:00:25.685Z,23.41
2022-09-15T13:00:42.407Z,23.40
2022-09-15T13:01:14.355Z,23.40
2022-09-15T13:01:17.498Z,23.39
2022-09-15T13:01:18.039Z,23.39
2022-09-15T13:01:23.797Z,23.39
2022-09-15T13:01:33.822Z,23.38
2022-09-15T13:01:45.658Z,23.38
2022-09-15T13:01:56.678Z,23.38
2022-09-15T13:02:08.709Z,23.40
2022-09-15T13:02:19.857Z,23.37
2022-09-15T13:02:31.737Z,23.37
2022-09-15T13:02:42.688Z,23.37
2022-09-15T13:02:54.687Z,23.37
2022-09-15T13:03:06.744Z,23.37
2022-09-15T13:03:18.674Z,23.37
2022-09-15T13:03:29.699Z,23.37
2022-09-15T13:03:52.773Z,23.37
2022-09-15T13:04:04.672Z,23.37
2022-09-15T13:04:16.601Z,23.39
2022-09-15T13:04:27.673Z,23.38
2022-09-15T13:04:39.645Z,23.37
2022-09-15T13:04:51.623Z,23.39
2022-09-15T13:05:02.668Z,23.39
2022-09-15T13:05:13.588Z,23.39
2022-09-15T13:05:24.618Z,23.39
2022-09-15T13:05:35.655Z,23.39
2022-09-15T13:05:46.670Z,23.39
2022-09-15T13:05:58.607Z,23.40
2022-09-15T13:06:09.658Z,23.40
2022-09-15T13:06:20.676Z,23.40
2022-09-15T13:06:31.605Z,23.41
2022-09-15T13:06:42.672Z,23.41
2022-09-15T13:06:54.612Z,23.41
2022-09-15T13:07:09.310Z,23.42
2022-09-15T13:07:16.590Z,23.43
2022-09-15T13:07:27.611Z,23.41
2022-09-15T13:07:38.680Z,23.44
2022-09-15T13:07:50.614Z,23.44
2022-09-15T13:08:01.649Z,23.44
2022-09-15T13:08:12.672Z,23.45
2022-09-15T13:08:24.610Z,23.44
2022-09-15T13:08:35.648Z,23.45
2022-09-15T13:08:46.585Z,23.44
2022-09-15T13:08:57.633Z,23.45
2022-09-15T13:09:08.679Z,23.45
2022-09-15T13:09:20.609Z,23.44
2022-09-15T13:09:31.649Z,23.44
2022-09-15T13:09:42.667Z,23.45
2022-09-15T13:09:54.644Z,23.45
2022-09-15T13:10:05.660Z,23.47
2022-09-15T13:10:17.640Z,23.45
2022-09-15T13:10:28.665Z,23.45
2022-09-15T13:10:40.613Z,23.46
2022-09-15T13:10:51.662Z,23.44
2022-09-15T13:11:04.749Z,23.45
2022-09-15T13:11:14.661Z,23.44
2022-09-15T13:11:25.690Z,23.45
2022-09-15T13:11:37.791Z,23.45
2022-09-15T13:11:48.643Z,23.45
2022-09-15T13:11:59.673Z,23.45
2022-09-15T13:12:11.624Z,23.45
2022-09-15T13:12:22.666Z,23.45
2022-09-15T13:12:34.594Z,23.45
2022-09-15T13:12:45.665Z,23.45
2022-09-15T13:12:57.600Z,23.47
2022-09-15T13:13:08.627Z,23.47
2022-09-15T13:13:19.650Z,23.46
2022-09-15T13:13:32.854Z,23.47
2022-09-15T13:13:41.580Z,23.48
2022-09-15T13:13:52.751Z,23.47
2022-09-15T13:14:03.677Z,23.47
2022-09-15T13:14:15.627Z,23.48
2022-09-15T13:14:26.673Z,23.47
2022-09-15T13:14:38.603Z,23.48
2022-09-15T13:14:49.623Z,23.48
2022-09-15T13:15:00.671Z,23.48
2022-09-15T13:15:12.614Z,23.47
2022-09-15T13:15:23.691Z,23.48
2022-09-15T13:15:35.704Z,23.47
2022-09-15T13:18:25.739Z,23.02
2022-09-15T13:18:37.677Z,23.09
2022-09-15T13:18:48.704Z,23.09
2022-09-15T13:19:00.652Z,23.08
2022-09-15T13:19:11.679Z,23.08
2022-09-15T13:19:22.713Z,23.07
2022-09-15T13:19:33.640Z,23.06
2022-09-15T13:19:44.666Z,23.06
2022-09-15T13:19:55.692Z,23.07
2022-09-15T13:20:06.632Z,23.05
2022-09-15T13:20:17.695Z,23.05
2022-09-15T13:20:29.693Z,23.05
2022-09-15T13:20:40.715Z,23.05
2022-09-15T13:20:52.652Z,23.05
2022-09-15T13:21:03.669Z,23.05
2022-09-15T13:21:14.703Z,23.04
2022-09-15T13:21:26.685Z,23.04
2022-09-15T13:21:38.664Z,23.04
2022-09-15T13:21:49.717Z,23.04
2022-09-15T13:22:01.672Z,23.03
2022-09-15T13:22:12.718Z,23.03
2022-09-15T13:22:24.649Z,23.03
2022-09-15T13:22:35.670Z,23.02
2022-09-15T13:22:46.709Z,23.02
2022-09-15T13:22:58.653Z,23.03
2022-09-15T13:23:09.718Z,23.01
2022-09-15T13:23:21.653Z,23.03
2022-09-15T13:23:32.702Z,23.03
2022-09-15T13:23:43.632Z,23.03
2022-09-15T13:23:54.693Z,23.02
2022-09-15T13:24:05.720Z,23.03
2022-09-15T13:24:17.673Z,23.02
2022-09-15T13:24:28.701Z,23.04
2022-09-15T13:24:39.651Z,23.03
2022-09-15T13:24:50.668Z,23.04
2022-09-15T13:25:02.054Z,23.03
2022-09-15T13:25:12.702Z,23.03
2022-09-15T13:25:24.641Z,23.04
2022-09-15T13:25:35.688Z,23.04
2022-09-15T13:25:46.715Z,23.04
2022-09-15T13:25:57.645Z,23.05
2022-09-15T13:26:08.685Z,23.04
2022-09-15T13:26:19.728Z,23.05
2022-09-15T13:26:31.656Z,23.05
2022-09-15T13:26:42.691Z,23.05
2022-09-15T13:26:54.666Z,23.04
2022-09-15T13:27:05.719Z,23.05
2022-09-15T13:27:17.647Z,23.05
2022-09-15T13:27:28.669Z,23.05
2022-09-15T13:27:39.721Z,23.06
2022-09-15T13:27:51.675Z,23.06
2022-09-15T13:28:02.715Z,23.06
2022-09-15T13:28:13.676Z,23.07
2022-09-15T13:28:24.696Z,23.07
2022-09-15T13:28:36.671Z,23.07
2022-09-15T13:28:49.521Z,23.07
2022-09-15T13:28:59.724Z,23.07
2022-09-15T13:29:11.691Z,23.09
2022-09-15T13:29:22.715Z,23.08
2022-09-15T13:29:34.669Z,23.08
2022-09-15T13:29:45.705Z,23.09
2022-09-15T13:29:57.663Z,23.08
2022-09-15T13:30:08.720Z,23.08
2022-09-15T13:30:20.667Z,23.09
2022-09-15T13:30:31.734Z,23.09
2022-09-15T13:30:43.748Z,23.09
2022-09-15T13:30:54.738Z,23.10
2022-09-15T13:31:06.706Z,23.10
2022-09-15T13:31:18.746Z,23.10
2022-09-15T13:31:29.707Z,23.09
2022-09-15T13:31:41.651Z,23.09
2022-09-15T13:31:52.696Z,23.10
2022-09-15T13:32:04.658Z,23.09
2022-09-15T13:32:15.734Z,23.11
2022-09-15T13:32:27.663Z,23.11
2022-09-15T13:32:38.704Z,23.12
2022-09-15T13:32:50.658Z,23.12
2022-09-15T13:33:01.716Z,23.11
2022-09-15T13:33:13.663Z,23.13
2022-09-15T13:33:25.021Z,23.12
2022-09-15T13:35:04.522Z,23.13
2022-09-15T13:35:05.448Z,23.13
2022-09-15T13:35:13.697Z,23.13
2022-09-15T13:35:20.481Z,23.14
2022-09-15T13:35:28.666Z,23.13
2022-09-15T13:35:39.697Z,23.13
2022-09-15T13:35:50.726Z,23.13
2022-09-15T13:36:02.678Z,23.15
2022-09-15T13:36:13.705Z,23.14
2022-09-15T13:36:26.572Z,23.14
2022-09-15T13:38:12.247Z,23.14
2022-09-15T13:38:15.095Z,23.16
2022-09-15T13:38:25.006Z,23.14
2022-09-15T13:38:32.103Z,23.14
2022-09-15T13:38:40.822Z,23.14
2022-09-15T13:38:52.898Z,23.16
2022-09-15T13:39:04.765Z,23.16
2022-09-15T13:39:15.785Z,23.15
2022-09-15T13:39:27.756Z,23.16
2022-09-15T13:39:38.772Z,23.17
2022-09-15T13:39:50.822Z,23.15
2022-09-15T13:40:02.841Z,23.16
2022-09-15T13:40:13.723Z,23.17
2022-09-15T13:40:24.715Z,23.16
2022-09-15T13:40:35.750Z,23.17
2022-09-15T13:40:47.697Z,23.17
2022-09-15T13:40:58.719Z,23.17
2022-09-15T13:41:10.651Z,23.17
2022-09-15T13:41:21.660Z,23.17
2022-09-15T13:41:32.728Z,23.17
2022-09-15T13:41:44.651Z,23.17
2022-09-15T13:41:55.674Z,23.18
2022-09-15T13:42:06.752Z,23.17
2022-09-15T13:42:18.716Z,23.18
2022-09-15T13:42:29.648Z,23.18
2022-09-15T13:42:40.669Z,23.18
2022-09-15T13:42:51.686Z,23.19
2022-09-15T13:43:03.666Z,23.19
2022-09-15T13:43:14.698Z,23.19
2022-09-15T13:43:25.728Z,23.19
2022-09-15T13:43:41.049Z,23.19
2022-09-15T13:43:48.736Z,23.19
2022-09-15T13:44:00.685Z,23.19
2022-09-15T13:44:11.722Z,23.21
2022-09-15T13:44:23.676Z,23.20
2022-09-15T13:44:34.702Z,23.20
2022-09-15T13:44:45.628Z,23.21
2022-09-15T13:44:56.654Z,23.21
2022-09-15T13:45:07.677Z,23.20
2022-09-15T13:45:18.704Z,23.21
2022-09-15T13:45:30.648Z,23.21
2022-09-15T13:45:41.785Z,23.21
2022-09-15T13:45:53.712Z,23.22
2022-09-15T13:46:05.694Z,23.21
2022-09-15T13:46:17.714Z,23.21
2022-09-15T13:46:29.678Z,23.21
2022-09-15T13:46:40.694Z,23.21
2022-09-15T13:46:51.710Z,23.20
2022-09-15T13:47:03.661Z,23.20
2022-09-15T13:47:14.715Z,23.22
2022-09-15T13:47:26.646Z,23.19
2022-09-15T13:47:37.670Z,23.21
2022-09-15T13:47:48.716Z,23.21
2022-09-15T13:48:00.696Z,23.21
2022-09-15T13:48:12.674Z,23.21
2022-09-15T13:48:23.815Z,23.21
2022-09-15T13:48:35.772Z,23.22
2022-09-15T13:48:46.757Z,23.21
2022-09-15T13:48:57.770Z,23.20
2022-09-15T13:49:08.739Z,23.21
2022-09-15T13:49:19.735Z,23.21
2022-09-15T13:49:30.806Z,23.20
2022-09-15T13:49:41.769Z,23.19
2022-09-15T13:49:52.735Z,23.21
2022-09-15T13:50:03.811Z,23.20
2022-09-15T13:50:14.792Z,23.21
2022-09-15T13:50:25.780Z,23.21
2022-09-15T13:50:36.749Z,23.20
2022-09-15T13:50:47.737Z,23.21
2022-09-15T13:50:58.702Z,23.21
2022-09-15T13:51:09.718Z,23.19
2022-09-15T13:51:21.663Z,23.19
2022-09-15T13:51:32.708Z,23.19
2022-09-15T13:51:44.670Z,23.19
2022-09-15T13:51:56.645Z,23.20
2022-09-15T13:52:07.666Z,23.20
2022-09-15T13:52:18.698Z,23.20
2022-09-15T13:52:30.660Z,23.19
2022-09-15T13:52:41.708Z,23.20
2022-09-15T13:52:53.678Z,23.20
2022-09-15T13:53:04.716Z,23.20
2022-09-15T13:53:16.659Z,23.20
2022-09-15T13:53:27.631Z,23.20
2022-09-15T13:53:38.654Z,23.19
2022-09-15T13:53:49.677Z,23.20
2022-09-15T13:54:00.706Z,23.19
2022-09-15T13:54:12.639Z,23.19
2022-09-15T13:54:23.671Z,23.20
2022-09-15T13:54:34.681Z,23.19
2022-09-15T13:54:45.631Z,23.20
2022-09-15T13:54:56.662Z,23.19
2022-09-15T13:55:07.678Z,23.20
2022-09-15T13:55:18.707Z,23.20
2022-09-15T13:55:29.724Z,23.21
2022-09-15T13:55:41.670Z,23.21
2022-09-15T13:55:52.710Z,23.21
2022-09-15T13:56:04.649Z,23.21
2022-09-15T13:56:15.665Z,23.20
2022-09-15T13:56:26.688Z,23.20
2022-09-15T13:56:37.713Z,23.20
2022-09-15T13:56:49.656Z,23.21
2022-09-15T13:57:00.691Z,23.19
2022-09-15T13:57:12.842Z,23.20
2022-09-15T13:58:54.231Z,23.20
2022-09-15T13:58:59.934Z,23.19
2022-09-15T13:59:07.015Z,23.18
2022-09-15T13:59:14.239Z,23.18
2022-09-15T13:59:20.300Z,23.18
2022-09-15T13:59:30.763Z,23.18
2022-09-15T13:59:41.732Z,23.16
2022-09-15T13:59:52.830Z,23.15
2022-09-15T14:00:04.825Z,23.17
2022-09-15T14:00:20.897Z,23.16
2022-09-15T14:00:28.361Z,23.16
2022-09-15T14:00:38.786Z,23.17
2022-09-15T14:00:49.766Z,23.17
2022-09-15T14:01:00.761Z,23.15
2022-09-15T14:01:11.900Z,23.15